Time;durP1;ratioP1;P1;durP2;ratioP2;P2;SDS_P1;SDS_P2;PMS_P1;PMS_P2;Temp;Humidity;BMP_temperature;BMP_pressure;BME280_temperature;BME280_humidity;BME280_pressure;Samples;Min_cycle;Max_cycle;Signal;HPM_P1;HPM_P2
2021/12/30 00:00:17;;;;;;;35.00;18.45;;;;;;;3.96;89.19;97888.38;2579680;28;20053;-80
2021/12/30 00:01:54;;;;;;;45.63;20.52;;;;;;;3.94;89.46;97895.31;2581318;28;20081;-83
2021/12/30 00:03:10;;;;;;;44.58;21.15;;;;;;;3.92;89.44;97894.47;2581316;28;20046;-80
2021/12/30 00:04:26;;;;;;;36.75;18.98;;;;;;;3.92;89.56;97897.91;2581356;28;20060;-79
2021/12/30 00:05:42;;;;;;;41.78;20.20;;;;;;;3.93;89.37;97898.78;2581008;28;20046;-79
2021/12/30 00:06:57;;;;;;;36.92;19.42;;;;;;;3.88;89.54;97892.75;2578916;28;20053;-80
2021/12/30 00:08:13;;;;;;;39.50;19.55;;;;;;;3.85;89.72;97895.38;2581346;28;20061;-79
2021/12/30 00:09:29;;;;;;;39.65;19.08;;;;;;;3.83;89.93;97891.97;2580874;28;21164;-79
2021/12/30 00:10:45;;;;;;;35.72;17.98;;;;;;;3.83;89.99;97897.13;2580285;28;20050;-80
2021/12/30 00:12:00;;;;;;;27.70;15.70;;;;;;;3.84;90.12;97896.25;2579649;28;20477;-80
2021/12/30 00:13:16;;;;;;;34.22;16.60;;;;;;;3.87;90.19;97897.09;2581248;28;20145;-79
2021/12/30 00:14:32;;;;;;;31.77;16.83;;;;;;;3.87;90.18;97894.50;2579912;28;20461;-79
2021/12/30 00:15:49;;;;;;;40.10;19.73;;;;;;;3.88;90.17;97890.16;2581298;28;20611;-79
2021/12/30 00:17:04;;;;;;;39.47;18.50;;;;;;;3.89;90.12;97899.66;2581779;28;20403;-79
2021/12/30 00:18:20;;;;;;;31.83;17.10;;;;;;;3.89;90.03;97899.66;2580962;28;20069;-79
2021/12/30 00:19:36;;;;;;;34.03;18.58;;;;;;;3.89;90.17;97892.75;2580284;28;20093;-79
2021/12/30 00:20:51;;;;;;;36.78;18.67;;;;;;;3.91;90.11;97903.09;2582368;28;20049;-79
2021/12/30 00:22:07;;;;;;;35.65;18.77;;;;;;;3.89;89.80;97908.31;2579976;28;20046;-83
2021/12/30 00:23:23;;;;;;;40.13;18.35;;;;;;;3.84;89.75;97901.44;2580783;28;20517;-80
2021/12/30 00:24:39;;;;;;;38.60;18.52;;;;;;;3.81;89.91;97905.78;2579467;28;20054;-84
2021/12/30 00:25:54;;;;;;;45.63;22.17;;;;;;;3.81;89.99;97904.91;2579664;28;20464;-79
2021/12/30 00:27:10;;;;;;;66.65;29.00;;;;;;;3.74;89.78;97903.28;2580478;28;20046;-78
2021/12/30 00:28:28;;;;;;;71.82;31.35;;;;;;;3.76;89.70;97911.88;2581526;28;20050;-77
2021/12/30 00:29:43;;;;;;;54.63;25.58;;;;;;;3.74;89.62;97903.28;2581706;28;20049;-83
2021/12/30 00:30:59;;;;;;;53.47;25.95;;;;;;;3.76;89.75;97907.53;2582785;28;20515;-78
2021/12/30 00:32:14;;;;;;;81.40;34.10;;;;;;;3.75;89.71;97905.81;2582472;28;20054;-80
2021/12/30 00:33:32;;;;;;;62.55;30.58;;;;;;;3.74;89.52;97906.69;2583061;28;20060;-80
2021/12/30 00:34:48;;;;;;;77.50;34.40;;;;;;;3.74;89.69;97905.84;2583587;28;20135;-79
2021/12/30 00:36:06;;;;;;;57.60;28.95;;;;;;;3.69;89.95;97905.91;2581708;28;20101;-78
2021/12/30 00:37:22;;;;;;;74.65;32.25;;;;;;;3.70;89.91;97907.59;2581734;28;20058;-78
2021/12/30 00:38:41;;;;;;;65.47;30.98;;;;;;;3.68;90.05;97907.59;2581042;28;20100;-78
2021/12/30 00:39:56;;;;;;;79.03;33.38;;;;;;;3.68;90.00;97906.75;2583134;28;20550;-78
2021/12/30 00:41:12;;;;;;;59.55;27.58;;;;;;;3.73;90.00;97911.91;2582021;28;20050;-78
2021/12/30 00:42:28;;;;;;;58.53;29.02;;;;;;;3.75;89.82;97910.16;2582875;28;20076;-78
2021/12/30 00:43:44;;;;;;;60.30;28.70;;;;;;;3.71;89.93;97909.31;2582359;28;20521;-80
2021/12/30 00:45:00;;;;;;;48.08;25.70;;;;;;;3.68;90.04;97904.19;2582890;28;20918;-78
2021/12/30 00:46:15;;;;;;;52.38;24.73;;;;;;;3.62;90.25;97905.09;2580651;28;20046;-79
2021/12/30 00:47:31;;;;;;;50.83;23.77;;;;;;;3.60;90.66;97901.66;2581525;28;20062;-78
2021/12/30 00:48:46;;;;;;;40.50;19.63;;;;;;;3.61;90.81;97905.97;2581709;28;20136;-78
2021/12/30 00:50:02;;;;;;;31.48;16.35;;;;;;;3.61;91.19;97910.25;2581241;28;20046;-78
2021/12/30 00:51:18;;;;;;;27.08;13.75;;;;;;;3.60;91.19;97912.00;2583608;28;20124;-78
2021/12/30 00:52:34;;;;;;;32.05;14.80;;;;;;;3.63;91.14;97911.09;2582745;28;20082;-78
2021/12/30 00:53:50;;;;;;;31.10;15.15;;;;;;;3.68;90.94;97906.75;2582197;28;20195;-79
2021/12/30 00:55:07;;;;;;;33.20;15.20;;;;;;;3.73;90.89;97912.75;2582516;28;20049;-78
2021/12/30 00:56:23;;;;;;;23.27;11.18;;;;;;;3.74;90.75;97909.28;2581714;28;20054;-78
2021/12/30 00:57:38;;;;;;;23.95;12.77;;;;;;;3.78;90.61;97910.13;2581599;28;20111;-81
2021/12/30 00:58:54;;;;;;;22.23;11.18;;;;;;;3.76;90.67;97902.34;2582816;28;20062;-80
2021/12/30 01:00:14;;;;;;;24.70;11.93;;;;;;;3.74;90.86;97901.53;2583607;28;20053;-79
2021/12/30 01:01:29;;;;;;;25.52;12.40;;;;;;;3.74;91.03;97893.75;2581695;28;20093;-78
2021/12/30 01:02:45;;;;;;;29.88;13.35;;;;;;;3.76;91.09;97897.19;2582655;28;20054;-79
2021/12/30 01:04:01;;;;;;;26.90;11.60;;;;;;;3.77;91.33;97905.81;2580878;28;20128;-80
2021/12/30 01:05:17;;;;;;;26.05;11.90;;;;;;;3.77;91.29;97908.41;2580717;28;20045;-78
2021/12/30 01:06:32;;;;;;;16.92;9.13;;;;;;;3.76;91.35;97914.47;2583468;28;20054;-78
2021/12/30 01:07:48;;;;;;;16.90;9.13;;;;;;;3.77;91.51;97914.47;2580751;28;20112;-80
2021/12/30 01:09:05;;;;;;;15.68;8.43;;;;;;;3.77;91.99;97911.88;2582904;28;20496;-78
2021/12/30 01:10:23;;;;;;;18.23;8.90;;;;;;;3.80;92.09;97909.25;2581909;28;20556;-79
2021/12/30 01:11:39;;;;;;;14.30;8.60;;;;;;;3.88;91.96;97910.88;2581133;28;20424;-78
2021/12/30 01:12:56;;;;;;;18.05;8.75;;;;;;;3.93;92.15;97915.16;2580877;28;20096;-78
2021/12/30 01:14:21;;;;;;;21.48;8.40;;;;;;;3.95;92.24;97907.38;2581220;28;20065;-79
2021/12/30 01:17:44;;;;;;;14.93;8.40;;;;;;;4.02;92.14;97903.84;2572149;28;20050;-79
2021/12/30 01:20:30;;;;;;;15.02;8.55;;;;;;;4.15;92.11;97920.13;2581195;28;20087;-78
2021/12/30 01:21:47;;;;;;;14.27;7.30;;;;;;;4.12;91.84;97925.34;2580845;28;20050;-78
2021/12/30 01:23:02;;;;;;;15.32;7.47;;;;;;;4.08;91.80;97918.47;2581196;28;20064;-78
2021/12/30 01:24:19;;;;;;;14.50;7.70;;;;;;;4.05;91.87;97928.88;2581390;28;20054;-78
2021/12/30 01:25:35;;;;;;;14.50;7.95;;;;;;;4.03;91.82;97923.69;2581180;28;20053;-78
2021/12/30 01:26:50;;;;;;;16.63;7.80;;;;;;;4.02;91.97;97934.09;2581330;28;20053;-78
2021/12/30 01:28:06;;;;;;;17.65;8.32;;;;;;;4.05;92.12;97934.03;2582118;28;20042;-78
2021/12/30 01:29:22;;;;;;;15.43;8.80;;;;;;;4.08;92.34;97929.69;2581734;28;20590;-79
2021/12/30 01:30:38;;;;;;;14.82;8.15;;;;;;;4.15;92.49;97934.81;2582935;28;20049;-78
2021/12/30 01:31:53;;;;;;;17.80;8.32;;;;;;;4.20;92.48;97928.69;2580408;28;20054;-82
2021/12/30 01:33:09;;;;;;;15.25;8.10;;;;;;;4.23;92.41;97926.06;2580929;28;20046;-78
2021/12/30 01:34:27;;;;;;;14.25;7.78;;;;;;;4.24;92.30;97935.56;2580368;28;20525;-78
2021/12/30 01:35:42;;;;;;;13.90;7.18;;;;;;;4.27;92.23;97928.66;2582939;28;20112;-83
2021/12/30 01:37:01;;;;;;;13.77;7.43;;;;;;;4.27;92.23;97929.50;2581574;28;20656;-82
2021/12/30 01:38:16;;;;;;;15.07;7.20;;;;;;;4.29;92.25;97934.69;2582672;28;20104;-80
2021/12/30 01:39:37;;;;;;;12.57;7.25;;;;;;;4.29;92.14;97934.69;2581507;28;20459;-79
2021/12/30 01:40:54;;;;;;;14.60;7.60;;;;;;;4.29;92.50;97930.34;2580199;28;20065;-78
2021/12/30 01:42:10;;;;;;;12.07;7.32;;;;;;;4.31;92.55;97932.91;2582941;28;20061;-83
2021/12/30 01:43:27;;;;;;;11.77;7.82;;;;;;;4.31;92.47;97931.16;2582148;28;20050;-79
2021/12/30 01:44:43;;;;;;;13.55;7.50;;;;;;;4.32;92.18;97929.44;2582043;28;20050;-78
2021/12/30 01:45:59;;;;;;;12.60;7.57;;;;;;;4.32;92.40;97929.44;2583458;28;20081;-79
2021/12/30 01:47:15;;;;;;;12.10;6.72;;;;;;;4.32;92.40;97932.03;2580783;28;20124;-80
2021/12/30 01:48:31;;;;;;;12.88;6.50;;;;;;;4.33;92.41;97934.63;2582102;28;20061;-78
2021/12/30 01:49:46;;;;;;;12.20;6.63;;;;;;;4.37;92.51;97935.44;2582912;28;20520;-78
2021/12/30 01:51:03;;;;;;;15.27;6.82;;;;;;;4.40;92.31;97931.97;2582028;28;20133;-78
2021/12/30 01:52:19;;;;;;;13.45;6.47;;;;;;;4.39;92.54;97931.09;2582989;28;20053;-79
2021/12/30 01:53:35;;;;;;;11.20;6.28;;;;;;;4.40;92.45;97930.22;2582863;28;20088;-78
2021/12/30 01:54:51;;;;;;;13.77;6.82;;;;;;;4.41;92.45;97931.06;2580791;28;20443;-79
2021/12/30 01:56:07;;;;;;;10.32;6.07;;;;;;;4.41;92.35;97929.34;2581659;28;20046;-79
2021/12/30 01:57:22;;;;;;;10.60;6.43;;;;;;;4.42;92.46;97935.38;2581602;28;20050;-79
2021/12/30 01:58:38;;;;;;;11.93;6.55;;;;;;;4.42;92.57;97923.28;2581587;28;20795;-79
2021/12/30 01:59:54;;;;;;;9.10;6.07;;;;;;;4.44;92.33;97926.72;2580968;28;20053;-78
2021/12/30 02:01:09;;;;;;;10.43;5.78;;;;;;;4.51;92.66;97930.09;2581421;28;20049;-79
2021/12/30 02:02:25;;;;;;;10.68;6.07;;;;;;;4.59;92.75;97924.81;2580942;28;20089;-79
2021/12/30 02:03:41;;;;;;;10.38;5.93;;;;;;;4.63;92.34;97929.97;2579801;28;20065;-78
2021/12/30 02:04:56;;;;;;;10.13;5.80;;;;;;;4.66;92.59;97926.44;2581428;28;20056;-79
2021/12/30 02:06:12;;;;;;;11.45;5.75;;;;;;;4.64;92.62;97930.81;2581653;28;20050;-79
2021/12/30 02:07:28;;;;;;;9.80;6.05;;;;;;;4.61;92.18;97929.13;2580348;28;20057;-78
2021/12/30 02:08:44;;;;;;;13.48;7.40;;;;;;;4.62;92.04;97941.22;2581573;28;20357;-78
2021/12/30 02:10:01;;;;;;;10.02;6.28;;;;;;;4.59;91.98;97928.25;2582637;28;20587;-78
2021/12/30 02:11:19;;;;;;;11.73;6.60;;;;;;;4.58;92.23;97934.31;2580828;28;20096;-78
2021/12/30 02:12:37;;;;;;;11.10;5.90;;;;;;;4.59;92.11;97932.59;2582351;28;20061;-78
2021/12/30 02:13:53;;;;;;;11.57;6.88;;;;;;;4.60;91.99;97931.72;2580223;28;20089;-78
2021/12/30 02:15:12;;;;;;;11.85;6.53;;;;;;;4.59;92.03;97930.84;2582000;28;20486;-81
2021/12/30 02:16:28;;;;;;;10.98;6.22;;;;;;;4.59;92.15;97930.84;2580540;28;20482;-79
2021/12/30 02:17:45;;;;;;;10.52;6.30;;;;;;;4.61;92.31;97938.63;2580936;28;20050;-78
2021/12/30 02:19:00;;;;;;;10.73;6.55;;;;;;;4.57;92.07;97940.38;2582432;28;20072;-79
2021/12/30 02:20:48;;;;;;;9.07;6.03;;;;;;;4.58;92.01;97946.44;2581224;28;20050;-78
2021/12/30 02:22:04;;;;;;;10.18;5.72;;;;;;;4.58;92.13;97949.03;2581308;28;20105;-78
2021/12/30 02:23:28;;;;;;;9.52;6.30;;;;;;;4.58;92.46;97949.03;2580909;28;20054;-80
2021/12/30 02:24:49;;;;;;;9.13;5.47;;;;;;;4.59;92.05;97943.81;2580823;28;20046;-78
2021/12/30 02:26:09;;;;;;;12.32;6.32;;;;;;;4.60;92.06;97952.47;2582852;28;20062;-79
2021/12/30 02:27:26;;;;;;;10.43;6.05;;;;;;;4.60;92.19;97953.31;2582184;28;20058;-78
2021/12/30 02:28:42;;;;;;;11.73;5.75;;;;;;;4.60;92.04;97955.91;2581435;28;20154;-78
2021/12/30 02:29:58;;;;;;;9.05;6.10;;;;;;;4.62;91.98;97966.25;2581618;28;20477;-79
2021/12/30 02:31:20;;;;;;;25.60;12.90;;;;;;;4.68;91.80;97962.75;2582867;28;20049;-79
2021/12/30 02:32:36;;;;;;;21.35;11.40;;;;;;;4.71;91.26;97965.28;2581168;28;20050;-83
2021/12/30 02:33:55;;;;;;;14.77;9.10;;;;;;;4.68;91.11;97963.63;2585450;28;20421;-79
2021/12/30 02:35:10;;;;;;;14.98;8.60;;;;;;;4.71;90.76;97966.16;2582701;28;20115;-79
2021/12/30 02:36:30;;;;;;;20.63;11.13;;;;;;;4.77;90.45;97981.63;2581323;28;20125;-80
2021/12/30 02:37:49;;;;;;;17.30;9.27;;;;;;;4.77;90.01;97967.84;2580261;28;20588;-79
2021/12/30 02:39:08;;;;;;;20.55;10.75;;;;;;;4.70;90.31;97972.22;2582479;28;20077;-80
2021/12/30 02:40:31;;;;;;;22.30;11.98;;;;;;;4.72;89.93;97969.59;2582218;28;20141;-79
2021/12/30 02:41:47;;;;;;;28.50;14.07;;;;;;;4.69;89.82;97969.66;2582239;28;20085;-79
2021/12/30 02:43:06;;;;;;;28.15;13.32;;;;;;;4.68;89.85;97968.81;2582499;28;20065;-79
2021/12/30 02:44:22;;;;;;;22.70;13.43;;;;;;;4.67;89.71;97969.66;2582786;28;20148;-80
2021/12/30 02:45:38;;;;;;;29.85;15.13;;;;;;;4.70;89.31;97980.00;2581532;28;20046;-79
2021/12/30 02:46:54;;;;;;;26.75;15.07;;;;;;;4.62;89.53;97971.44;2580545;28;20050;-79
2021/12/30 02:48:19;;;;;;;31.02;15.18;;;;;;;4.50;89.50;97978.47;2581204;28;20046;-79
2021/12/30 02:49:35;;;;;;;28.15;13.23;;;;;;;4.51;89.74;97969.84;2580009;28;20069;-80
2021/12/30 02:50:54;;;;;;;22.95;11.73;;;;;;;4.49;89.79;97978.53;2579973;28;20069;-79
2021/12/30 02:52:09;;;;;;;26.35;12.63;;;;;;;4.49;89.73;97973.34;2579139;28;20507;-79
2021/12/30 02:53:25;;;;;;;28.17;14.02;;;;;;;4.46;89.77;97975.94;2580631;28;20054;-80
2021/12/30 02:54:42;;;;;;;24.27;13.48;;;;;;;4.38;90.09;97978.63;2579516;28;20062;-79
2021/12/30 02:55:58;;;;;;;21.60;12.20;;;;;;;4.36;90.15;97977.78;2581193;28;20050;-79
2021/12/30 02:57:14;;;;;;;25.45;13.38;;;;;;;4.33;90.20;97970.91;2579266;28;20480;-79
2021/12/30 02:58:31;;;;;;;24.73;13.30;;;;;;;4.30;90.24;97970.06;2581277;28;20128;-80
2021/12/30 02:59:46;;;;;;;25.92;13.63;;;;;;;4.29;90.40;97973.53;2579973;28;20049;-79
2021/12/30 03:01:15;;;;;;;24.55;13.35;;;;;;;4.28;90.61;97969.25;2579675;28;20096;-79
2021/12/30 03:02:30;;;;;;;23.45;12.73;;;;;;;4.24;90.54;97966.66;2580572;28;20085;-79
2021/12/30 03:03:47;;;;;;;22.02;12.93;;;;;;;4.23;90.79;97964.94;2580304;28;20497;-80
2021/12/30 03:05:03;;;;;;;20.75;11.88;;;;;;;4.25;90.67;97967.53;2582719;28;20057;-79
2021/12/30 03:06:19;;;;;;;22.58;12.82;;;;;;;4.26;90.66;97956.28;2579851;28;20104;-79
2021/12/30 03:07:36;;;;;;;21.42;10.95;;;;;;;4.30;90.80;97952.78;2581047;28;20093;-79
2021/12/30 03:08:52;;;;;;;23.35;12.57;;;;;;;4.30;90.78;97946.75;2582555;28;20515;-79
2021/12/30 03:10:14;;;;;;;23.85;12.23;;;;;;;4.31;90.83;97954.50;2580458;28;20127;-80
2021/12/30 03:11:30;;;;;;;22.75;12.18;;;;;;;4.37;90.88;97959.63;2581246;28;20054;-80
2021/12/30 03:12:52;;;;;;;17.20;10.55;;;;;;;4.40;90.94;97969.13;2581366;28;20492;-80
2021/12/30 03:14:08;;;;;;;22.35;10.65;;;;;;;4.42;91.02;97967.34;2579049;28;20069;-80
2021/12/30 03:15:26;;;;;;;23.13;10.68;;;;;;;4.48;91.13;97974.22;2579841;28;20060;-80
2021/12/30 03:16:42;;;;;;;20.40;10.80;;;;;;;4.46;90.99;97971.63;2582094;28;20080;-79
2021/12/30 03:17:58;;;;;;;19.40;10.40;;;;;;;4.48;91.23;97975.06;2580404;28;20077;-79
2021/12/30 03:19:14;;;;;;;15.55;9.00;;;;;;;4.58;91.28;97985.34;2582186;28;20081;-79
2021/12/30 03:20:34;;;;;;;16.38;9.55;;;;;;;4.62;91.44;97985.28;2581981;28;20085;-80
2021/12/30 03:21:49;;;;;;;12.70;8.18;;;;;;;4.69;91.33;97992.97;2579436;28;20069;-80
2021/12/30 03:23:05;;;;;;;15.40;8.20;;;;;;;4.74;91.63;97997.25;2581809;28;20249;-79
2021/12/30 03:24:21;;;;;;;13.18;7.88;;;;;;;4.89;91.51;97991.03;2581384;28;20473;-80
2021/12/30 03:25:36;;;;;;;14.20;6.90;;;;;;;5.05;91.63;98002.03;2580184;28;20508;-80
2021/12/30 03:26:52;;;;;;;9.93;6.07;;;;;;;5.09;91.65;97998.53;2585214;28;20046;-79
2021/12/30 03:28:08;;;;;;;10.40;6.40;;;;;;;5.14;91.58;98008.00;2582979;28;20047;-80
2021/12/30 03:29:24;;;;;;;10.50;5.55;;;;;;;5.23;91.80;98010.47;2579605;28;20493;-79
2021/12/30 03:30:40;;;;;;;9.88;5.78;;;;;;;5.32;91.38;98012.94;2580320;28;20519;-80
2021/12/30 03:31:55;;;;;;;9.73;6.00;;;;;;;5.33;91.21;98006.88;2580087;28;20050;-83
2021/12/30 03:33:11;;;;;;;9.85;5.30;;;;;;;5.47;90.95;98009.28;2580353;28;20143;-81
2021/12/30 03:34:27;;;;;;;7.88;4.75;;;;;;;5.51;90.81;98015.28;2579296;28;20557;-80
2021/12/30 03:35:42;;;;;;;7.38;4.80;;;;;;;5.49;90.66;98017.91;2579594;28;20050;-79
2021/12/30 03:36:58;;;;;;;7.70;4.70;;;;;;;5.53;90.48;98012.66;2581623;28;20045;-80
2021/12/30 03:38:14;;;;;;;7.20;4.72;;;;;;;5.49;90.25;98015.31;2579552;28;20217;-79
2021/12/30 03:39:29;;;;;;;6.85;4.78;;;;;;;5.43;90.55;98024.94;2579542;28;20103;-79
2021/12/30 03:40:45;;;;;;;6.47;4.13;;;;;;;5.41;90.66;98024.94;2580622;28;20049;-80
2021/12/30 03:42:01;;;;;;;8.18;4.78;;;;;;;5.36;90.79;98026.75;2581968;28;20157;-79
2021/12/30 03:43:16;;;;;;;6.70;4.43;;;;;;;5.33;90.75;98026.78;2580443;28;20050;-80
2021/12/30 03:44:32;;;;;;;5.35;3.53;;;;;;;5.47;90.73;98035.25;2581219;28;20057;-80
2021/12/30 03:45:48;;;;;;;4.60;3.30;;;;;;;5.60;90.78;98028.13;2579218;28;20070;-80
2021/12/30 03:47:05;;;;;;;4.95;3.35;;;;;;;5.80;90.49;98025.25;2580459;28;20490;-80
2021/12/30 03:48:23;;;;;;;4.97;2.90;;;;;;;5.84;89.83;98023.47;2582127;28;20046;-80
2021/12/30 03:49:38;;;;;;;3.42;2.70;;;;;;;5.90;89.90;98023.34;2581059;28;20065;-80
2021/12/30 03:50:54;;;;;;;3.03;2.20;;;;;;;6.08;90.01;98031.78;2581740;28;20065;-80
2021/12/30 03:52:11;;;;;;;3.63;2.30;;;;;;;6.20;89.06;98026.34;2582367;28;20493;-80
2021/12/30 03:53:27;;;;;;;2.78;2.10;;;;;;;6.15;88.58;98033.38;2582261;28;20137;-80
2021/12/30 03:54:42;;;;;;;4.25;3.10;;;;;;;6.07;88.65;98030.03;2580421;28;20046;-79
2021/12/30 03:55:58;;;;;;;3.22;2.53;;;;;;;6.07;88.84;98030.03;2585109;28;20988;-80
2021/12/30 03:57:14;;;;;;;4.85;3.20;;;;;;;6.05;88.54;98032.69;2582853;28;20569;-79
2021/12/30 03:58:29;;;;;;;3.72;2.90;;;;;;;6.05;88.08;98031.81;2580587;28;20117;-80
2021/12/30 03:59:45;;;;;;;10.82;5.95;;;;;;;5.98;87.94;98036.22;2581209;28;20456;-79
2021/12/30 04:01:01;;;;;;;10.43;6.32;;;;;;;5.91;88.08;98035.44;2579601;28;20482;-79
2021/12/30 04:02:16;;;;;;;8.20;5.53;;;;;;;5.80;88.47;98032.19;2580720;28;20443;-80
2021/12/30 04:03:32;;;;;;;5.57;4.00;;;;;;;5.94;89.04;98030.22;2579625;28;20107;-80
2021/12/30 04:04:48;;;;;;;6.00;3.70;;;;;;;5.98;88.91;98035.38;2582171;28;20062;-80
2021/12/30 04:06:03;;;;;;;5.57;3.75;;;;;;;6.01;88.93;98037.91;2583462;28;20054;-79
2021/12/30 04:07:19;;;;;;;4.68;3.22;;;;;;;5.94;89.00;98048.41;2583123;28;20138;-79
2021/12/30 04:08:35;;;;;;;5.75;3.40;;;;;;;5.88;89.18;98048.50;2581312;28;20051;-79
2021/12/30 04:09:51;;;;;;;5.57;4.05;;;;;;;5.78;89.20;98045.19;2581524;28;20910;-79
2021/12/30 04:11:07;;;;;;;5.20;3.72;;;;;;;5.74;89.21;98043.53;2583950;28;20049;-80
2021/12/30 04:12:22;;;;;;;4.45;2.60;;;;;;;5.72;89.36;98047.03;2583511;28;20057;-80
2021/12/30 04:13:38;;;;;;;4.30;3.08;;;;;;;5.72;89.73;98060.84;2584022;28;20062;-80
2021/12/30 04:14:54;;;;;;;3.63;2.70;;;;;;;5.76;89.94;98067.75;2581630;28;20060;-80
2021/12/30 04:16:09;;;;;;;2.47;2.08;;;;;;;5.82;90.32;98076.31;2581602;28;20053;-81
2021/12/30 04:17:25;;;;;;;3.42;1.92;;;;;;;6.00;90.56;98078.63;2582792;28;20053;-80
2021/12/30 04:18:40;;;;;;;3.42;1.88;;;;;;;6.21;90.39;98082.66;2583485;28;20054;-80
2021/12/30 04:19:56;;;;;;;2.38;1.73;;;;;;;6.30;89.75;98094.66;2582115;28;20108;-80
2021/12/30 04:21:12;;;;;;;2.78;1.77;;;;;;;6.45;89.31;98100.50;2582724;28;20096;-79
2021/12/30 04:22:27;;;;;;;2.53;1.70;;;;;;;6.56;88.60;98105.50;2581504;28;20073;-79
2021/12/30 04:23:43;;;;;;;3.25;1.90;;;;;;;6.66;87.71;98108.81;2583448;28;20393;-80
2021/12/30 04:24:59;;;;;;;2.20;1.77;;;;;;;6.66;87.84;98114.00;2581042;28;20049;-79
2021/12/30 04:26:15;;;;;;;1.90;1.70;;;;;;;6.75;87.29;98113.84;2580554;28;20054;-79
2021/12/30 04:27:30;;;;;;;1.63;1.52;;;;;;;6.75;87.34;98106.91;2583426;28;20054;-84
2021/12/30 04:28:46;;;;;;;2.50;1.80;;;;;;;6.75;87.21;98093.03;2583227;28;20137;-80
2021/12/30 04:30:04;;;;;;;2.92;1.90;;;;;;;6.74;87.26;98086.97;2581871;28;20046;-80
2021/12/30 04:31:20;;;;;;;2.47;1.90;;;;;;;6.69;87.08;98086.19;2582947;28;20136;-80
2021/12/30 04:32:36;;;;;;;2.83;1.95;;;;;;;6.62;87.22;98089.78;2583061;28;20046;-79
2021/12/30 04:33:51;;;;;;;2.42;1.67;;;;;;;6.53;87.14;98100.38;2581215;28;20070;-79
2021/12/30 04:35:08;;;;;;;2.30;1.67;;;;;;;6.48;87.67;98109.09;2583406;28;20054;-79
2021/12/30 04:36:24;;;;;;;2.47;2.15;;;;;;;6.44;87.80;98119.59;2580740;28;20104;-80
2021/12/30 04:37:40;;;;;;;2.45;2.00;;;;;;;6.42;87.75;98124.81;2583689;28;20046;-79
2021/12/30 04:38:55;;;;;;;3.35;2.42;;;;;;;6.30;87.62;98138.88;2582554;28;20484;-79
2021/12/30 04:40:13;;;;;;;2.97;2.00;;;;;;;6.45;88.19;98134.31;2583701;28;20077;-79
2021/12/30 04:41:28;;;;;;;2.97;2.10;;;;;;;6.56;87.94;98136.72;2582490;28;20050;-80
2021/12/30 04:42:44;;;;;;;3.30;2.08;;;;;;;6.57;87.54;98130.63;2583653;28;20054;-79
2021/12/30 04:44:00;;;;;;;2.67;2.20;;;;;;;6.47;87.57;98128.19;2583066;28;20050;-79
2021/12/30 04:45:16;;;;;;;2.70;1.77;;;;;;;6.41;87.85;98135.22;2583775;28;20428;-80
2021/12/30 04:46:33;;;;;;;2.60;2.05;;;;;;;6.54;88.10;98138.50;2583812;28;20164;-79
2021/12/30 04:47:48;;;;;;;2.50;2.00;;;;;;;6.47;87.77;98140.34;2580647;28;20050;-79
2021/12/30 04:49:04;;;;;;;3.08;2.17;;;;;;;6.42;88.09;98140.41;2586457;28;20248;-79
2021/12/30 04:50:20;;;;;;;3.08;2.28;;;;;;;6.36;88.38;98148.31;2584473;28;20501;-80
2021/12/30 04:51:35;;;;;;;2.80;1.98;;;;;;;6.40;88.37;98149.09;2583522;28;20056;-79
2021/12/30 04:52:51;;;;;;;2.83;2.00;;;;;;;6.42;88.38;98149.94;2582573;28;20461;-80
2021/12/30 04:54:06;;;;;;;3.22;2.03;;;;;;;6.44;88.22;98156.84;2582297;28;20046;-79
2021/12/30 04:55:22;;;;;;;2.88;2.10;;;;;;;6.36;88.07;98156.13;2582936;28;20548;-80
2021/12/30 04:56:37;;;;;;;2.30;2.10;;;;;;;6.25;87.85;98150.22;2580740;28;20061;-79
2021/12/30 04:57:53;;;;;;;4.07;2.67;;;;;;;6.12;87.68;98144.34;2580917;28;20048;-82
2021/12/30 04:59:09;;;;;;;4.22;2.92;;;;;;;6.02;87.84;98146.22;2581465;28;20049;-79
2021/12/30 05:00:24;;;;;;;3.65;3.00;;;;;;;5.93;88.33;98141.97;2582374;28;20050;-79
2021/12/30 05:01:40;;;;;;;3.42;2.90;;;;;;;5.84;88.37;98147.28;2581653;28;20045;-79
2021/12/30 05:04:17;;;;;;;4.80;2.95;;;;;;;5.72;88.82;98149.16;2583328;28;20069;-79
2021/12/30 05:05:41;;;;;;;5.00;2.67;;;;;;;5.70;89.22;98150.09;2583210;28;20057;-79
2021/12/30 05:06:57;;;;;;;3.55;2.20;;;;;;;5.64;89.18;98151.88;2581167;28;20056;-79
2021/12/30 05:08:14;;;;;;;3.97;2.65;;;;;;;5.58;89.27;98156.28;2581897;28;20133;-79
2021/12/30 05:09:31;;;;;;;3.50;2.58;;;;;;;5.51;89.07;98151.16;2582425;28;20051;-80
2021/12/30 05:10:48;;;;;;;3.25;2.17;;;;;;;5.47;89.55;98159.88;2581145;28;20054;-80
2021/12/30 05:12:04;;;;;;;3.30;2.58;;;;;;;5.45;90.14;98159.03;2581771;28;20050;-79
2021/12/30 05:13:20;;;;;;;3.75;2.80;;;;;;;5.42;90.17;98166.84;2580784;28;20065;-78
2021/12/30 05:14:35;;;;;;;4.10;2.60;;;;;;;5.42;90.70;98166.00;2581963;28;20563;-79
2021/12/30 05:15:51;;;;;;;3.10;2.20;;;;;;;5.49;90.89;98170.22;2583161;28;20160;-79
2021/12/30 05:17:07;;;;;;;3.25;2.40;;;;;;;5.64;91.20;98166.59;2582792;28;20052;-79
2021/12/30 05:18:30;;;;;;;3.53;2.42;;;;;;;5.77;91.51;98172.50;2581635;28;20137;-79
2021/12/30 05:19:46;;;;;;;3.47;2.30;;;;;;;5.84;91.62;98176.75;2582983;28;20127;-80
2021/12/30 05:21:04;;;;;;;2.78;2.15;;;;;;;5.89;91.57;98176.69;2582340;28;20054;-79
2021/12/30 05:22:19;;;;;;;3.10;2.30;;;;;;;5.99;91.37;98177.41;2581494;28;20054;-79
2021/12/30 05:23:35;;;;;;;2.83;2.38;;;;;;;5.99;91.15;98173.06;2581173;28;20466;-86
2021/12/30 05:24:51;;;;;;;5.15;3.63;;;;;;;5.91;90.69;98182.72;2582492;28;20088;-79
2021/12/30 05:26:07;;;;;;;3.28;2.97;;;;;;;5.89;90.39;98187.91;2582535;28;20081;-78
2021/12/30 05:27:22;;;;;;;8.15;4.80;;;;;;;5.86;90.28;98179.28;2581947;28;20050;-79
2021/12/30 05:28:38;;;;;;;6.28;3.95;;;;;;;5.79;90.18;98179.41;2581326;28;20488;-79
2021/12/30 05:29:53;;;;;;;6.35;3.95;;;;;;;5.77;89.93;98175.09;2581476;28;20070;-80
2021/12/30 05:31:09;;;;;;;6.97;4.15;;;;;;;5.75;90.03;98177.72;2582005;28;20050;-79
2021/12/30 05:32:25;;;;;;;14.60;7.75;;;;;;;5.68;89.91;98172.63;2582610;28;20077;-78
2021/12/30 05:33:40;;;;;;;15.52;8.20;;;;;;;5.66;89.87;98175.22;2581960;28;20049;-82
2021/12/30 05:34:56;;;;;;;15.00;7.78;;;;;;;5.60;89.67;98181.34;2581869;28;20046;-78
2021/12/30 05:36:11;;;;;;;11.77;7.68;;;;;;;5.53;89.77;98179.72;2580541;28;20213;-79
2021/12/30 05:37:27;;;;;;;12.10;6.97;;;;;;;5.47;89.75;98193.63;2579947;28;20061;-80
2021/12/30 05:38:42;;;;;;;11.07;6.55;;;;;;;5.42;90.18;98198.00;2581153;28;20054;-78
2021/12/30 05:39:58;;;;;;;10.65;6.65;;;;;;;5.37;90.27;98194.59;2581165;28;20057;-79
2021/12/30 05:41:14;;;;;;;10.85;6.68;;;;;;;5.35;90.07;98204.16;2581184;28;20050;-79
2021/12/30 05:42:29;;;;;;;10.63;6.43;;;;;;;5.31;90.48;98210.25;2580343;28;20045;-79
2021/12/30 05:43:45;;;;;;;10.48;5.75;;;;;;;5.28;90.65;98213.75;2582253;28;20058;-78
2021/12/30 05:45:02;;;;;;;8.75;5.40;;;;;;;5.27;90.78;98208.56;2581074;28;20125;-79
2021/12/30 05:46:18;;;;;;;8.35;5.03;;;;;;;5.26;90.54;98222.41;2581547;28;20047;-79
2021/12/30 05:47:33;;;;;;;7.93;5.10;;;;;;;5.27;90.65;98216.34;2583039;28;20122;-79
2021/12/30 05:48:49;;;;;;;5.22;4.00;;;;;;;5.29;90.84;98228.44;2580783;28;20050;-80
2021/12/30 05:50:06;;;;;;;6.32;4.18;;;;;;;5.34;90.70;98233.59;2581878;28;20517;-79
2021/12/30 05:51:22;;;;;;;5.38;3.70;;;;;;;5.36;90.71;98240.47;2580937;28;20552;-78
2021/12/30 05:52:38;;;;;;;5.57;4.03;;;;;;;5.38;90.57;98243.06;2581627;28;20045;-79
2021/12/30 05:53:53;;;;;;;5.05;3.58;;;;;;;5.39;90.80;98238.75;2581277;28;20666;-78
2021/12/30 05:55:09;;;;;;;4.82;2.95;;;;;;;5.40;90.67;98243.91;2581894;28;20047;-79
2021/12/30 05:56:25;;;;;;;4.05;3.15;;;;;;;5.41;90.86;98239.59;2580262;28;20090;-78
2021/12/30 05:57:42;;;;;;;5.80;3.67;;;;;;;5.43;90.73;98246.47;2580640;28;20058;-80
2021/12/30 05:58:57;;;;;;;5.68;3.35;;;;;;;5.46;91.07;98240.38;2582147;28;20477;-79
2021/12/30 06:00:15;;;;;;;4.93;3.65;;;;;;;5.45;90.59;98252.53;2581443;28;20509;-79
2021/12/30 06:01:31;;;;;;;5.45;3.85;;;;;;;5.46;90.98;98254.25;2580709;28;20518;-79
2021/12/30 06:02:46;;;;;;;5.20;3.78;;;;;;;5.47;90.96;98248.16;2581701;28;20046;-78
2021/12/30 06:04:02;;;;;;;6.40;4.22;;;;;;;5.48;90.93;98249.88;2580492;28;20046;-78
2021/12/30 06:05:18;;;;;;;6.18;4.20;;;;;;;5.47;91.00;98255.97;2582170;28;20053;-80